sensor_id;sensor_type;location;lat;lon;timestamp;pressure;altitude;pressure_sealevel;temperature;humidity
30636;BME280;17400;52.392;9.750;2022-12-08T00:01:31;100172.41;;;4.32;100.00
30636;BME280;17400;52.392;9.750;2022-12-08T00:04:02;100171.06;;;4.36;100.00
30636;BME280;17400;52.392;9.750;2022-12-08T00:06:32;100169.72;;;4.40;100.00
30636;BME280;17400;52.392;9.750;2022-12-08T00:09:19;100158.34;;;4.38;100.00
30636;BME280;17400;52.392;9.750;2022-12-08T00:11:52;100157.19;;;4.41;100.00
30636;BME280;17400;52.392;9.750;2022-12-08T00:14:32;100163.72;;;4.38;100.00
30636;BME280;17400;52.392;9.750;2022-12-08T00:17:00;100159.84;;;4.41;100.00
30636;BME280;17400;52.392;9.750;2022-12-08T00:19:31;100154.31;;;4.42;100.00
30636;BME280;17400;52.392;9.750;2022-12-08T00:21:58;100151.97;;;4.39;100.00
30636;BME280;17400;52.392;9.750;2022-12-08T00:24:30;100152.28;;;4.44;100.00
30636;BME280;17400;52.392;9.750;2022-12-08T00:26:58;100150.78;;;4.50;100.00
30636;BME280;17400;52.392;9.750;2022-12-08T00:29:26;100149.25;;;4.56;100.00
30636;BME280;17400;52.392;9.750;2022-12-08T00:31:54;100140.22;;;4.57;100.00
30636;BME280;17400;52.392;9.750;2022-12-08T00:34:22;100142.56;;;4.52;100.00
30636;BME280;17400;52.392;9.750;2022-12-08T00:36:51;100146.25;;;4.50;100.00
30636;BME280;17400;52.392;9.750;2022-12-08T00:39:18;100141.56;;;4.44;100.00
30636;BME280;17400;52.392;9.750;2022-12-08T00:41:46;100150.94;;;4.48;100.00
30636;BME280;17400;52.392;9.750;2022-12-08T00:44:31;100143.94;;;4.47;100.00
30636;BME280;17400;52.392;9.750;2022-12-08T00:46:59;100138.41;;;4.41;100.00
30636;BME280;17400;52.392;9.750;2022-12-08T00:49:27;100126.84;;;4.40;100.00
30636;BME280;17400;52.392;9.750;2022-12-08T00:51:56;100138.25;;;4.42;100.00
30636;BME280;17400;52.392;9.750;2022-12-08T00:54:24;100128.69;;;4.40;100.00
30636;BME280;17400;52.392;9.750;2022-12-08T00:56:51;100126.19;;;4.38;100.00
30636;BME280;17400;52.392;9.750;2022-12-08T00:59:21;100130.88;;;4.36;100.00
30636;BME280;17400;52.392;9.750;2022-12-08T01:01:49;100127.84;;;4.39;100.00
30636;BME280;17400;52.392;9.750;2022-12-08T01:04:18;100119.81;;;4.39;100.00
30636;BME280;17400;52.392;9.750;2022-12-08T01:06:47;100124.50;;;4.37;100.00
30636;BME280;17400;52.392;9.750;2022-12-08T01:09:17;100127.53;;;4.34;100.00
30636;BME280;17400;52.392;9.750;2022-12-08T01:11:46;100120.69;;;4.31;100.00
30636;BME280;17400;52.392;9.750;2022-12-08T01:14:14;100122.03;;;4.27;100.00
30636;BME280;17400;52.392;9.750;2022-12-08T01:16:42;100116.50;;;4.29;100.00
30636;BME280;17400;52.392;9.750;2022-12-08T01:19:12;100125.53;;;4.28;100.00
30636;BME280;17400;52.392;9.750;2022-12-08T01:21:41;100108.13;;;4.24;100.00
30636;BME280;17400;52.392;9.750;2022-12-08T01:24:10;100119.16;;;4.21;100.00
30636;BME280;17400;52.392;9.750;2022-12-08T01:26:40;100105.63;;;4.22;100.00
30636;BME280;17400;52.392;9.750;2022-12-08T01:29:08;100117.53;;;4.20;100.00
30636;BME280;17400;52.392;9.750;2022-12-08T01:31:37;100114.16;;;4.17;100.00
30636;BME280;17400;52.392;9.750;2022-12-08T01:34:06;100114.84;;;4.11;100.00
30636;BME280;17400;52.392;9.750;2022-12-08T01:36:35;100112.69;;;4.07;100.00
30636;BME280;17400;52.392;9.750;2022-12-08T01:39:05;100113.19;;;4.10;100.00
30636;BME280;17400;52.392;9.750;2022-12-08T01:41:35;100108.81;;;4.17;100.00
30636;BME280;17400;52.392;9.750;2022-12-08T01:47:05;100112.63;;;4.23;100.00
30636;BME280;17400;52.392;9.750;2022-12-08T01:49:34;100105.78;;;4.21;100.00
30636;BME280;17400;52.392;9.750;2022-12-08T01:52:08;100108.16;;;4.07;100.00
30636;BME280;17400;52.392;9.750;2022-12-08T01:54:41;100106.31;;;4.08;100.00
30636;BME280;17400;52.392;9.750;2022-12-08T01:57:12;100095.09;;;4.12;100.00
30636;BME280;17400;52.392;9.750;2022-12-08T01:59:46;100094.75;;;4.15;100.00
30636;BME280;17400;52.392;9.750;2022-12-08T02:02:17;100100.78;;;4.09;100.00
30636;BME280;17400;52.392;9.750;2022-12-08T02:04:44;100096.09;;;4.11;100.00
30636;BME280;17400;52.392;9.750;2022-12-08T02:07:13;100091.41;;;4.13;100.00
30636;BME280;17400;52.392;9.750;2022-12-08T02:09:43;100093.91;;;4.15;100.00
30636;BME280;17400;52.392;9.750;2022-12-08T02:12:11;100087.03;;;4.12;100.00
30636;BME280;17400;52.392;9.750;2022-12-08T02:14:39;100088.06;;;4.03;100.00
30636;BME280;17400;52.392;9.750;2022-12-08T02:17:18;100080.72;;;3.97;100.00
30636;BME280;17400;52.392;9.750;2022-12-08T02:20:10;100084.22;;;3.97;100.00
30636;BME280;17400;52.392;9.750;2022-12-08T02:22:49;100078.03;;;4.05;100.00
30636;BME280;17400;52.392;9.750;2022-12-08T02:25:24;100069.66;;;4.08;100.00
30636;BME280;17400;52.392;9.750;2022-12-08T02:28:06;100069.16;;;3.96;100.00
30636;BME280;17400;52.392;9.750;2022-12-08T02:30:46;100071.50;;;3.91;100.00
30636;BME280;17400;52.392;9.750;2022-12-08T02:33:41;100074.88;;;3.93;100.00
30636;BME280;17400;52.392;9.750;2022-12-08T02:36:18;100066.31;;;3.98;100.00
30636;BME280;17400;52.392;9.750;2022-12-08T02:38:58;100071.19;;;3.94;100.00
30636;BME280;17400;52.392;9.750;2022-12-08T02:41:32;100066.66;;;3.95;100.00
30636;BME280;17400;52.392;9.750;2022-12-08T02:44:09;100064.97;;;3.94;100.00
30636;BME280;17400;52.392;9.750;2022-12-08T02:46:42;100054.28;;;3.94;100.00
30636;BME280;17400;52.392;9.750;2022-12-08T02:49:12;100061.97;;;3.97;100.00
30636;BME280;17400;52.392;9.750;2022-12-08T02:51:42;100060.63;;;3.93;100.00
30636;BME280;17400;52.392;9.750;2022-12-08T02:54:10;100063.81;;;3.96;100.00
30636;BME280;17400;52.392;9.750;2022-12-08T02:56:48;100062.28;;;4.02;100.00
30636;BME280;17400;52.392;9.750;2022-12-08T02:59:26;100063.31;;;4.01;100.00
30636;BME280;17400;52.392;9.750;2022-12-08T03:02:09;100065.50;;;3.97;100.00
30636;BME280;17400;52.392;9.750;2022-12-08T03:04:44;100065.66;;;3.96;100.00
30636;BME280;17400;52.392;9.750;2022-12-08T03:07:18;100060.97;;;3.90;100.00
30636;BME280;17400;52.392;9.750;2022-12-08T03:09:50;100055.59;;;3.98;100.00
30636;BME280;17400;52.392;9.750;2022-12-08T03:12:24;100056.44;;;3.98;100.00
30636;BME280;17400;52.392;9.750;2022-12-08T03:14:58;100051.25;;;4.05;100.00
30636;BME280;17400;52.392;9.750;2022-12-08T03:17:28;100040.72;;;4.04;100.00
30636;BME280;17400;52.392;9.750;2022-12-08T03:20:00;100037.56;;;3.92;100.00
30636;BME280;17400;52.392;9.750;2022-12-08T03:22:31;100029.84;;;3.97;100.00
30636;BME280;17400;52.392;9.750;2022-12-08T03:24:59;100026.81;;;4.00;100.00
30636;BME280;17400;52.392;9.750;2022-12-08T03:27:28;100023.13;;;4.01;100.00
30636;BME280;17400;52.392;9.750;2022-12-08T03:29:58;100022.63;;;3.97;100.00
30636;BME280;17400;52.392;9.750;2022-12-08T03:32:29;100016.09;;;4.00;100.00
30636;BME280;17400;52.392;9.750;2022-12-08T03:35:04;100013.06;;;4.03;100.00
30636;BME280;17400;52.392;9.750;2022-12-08T03:37:34;100007.41;;;4.06;100.00
30636;BME280;17400;52.392;9.750;2022-12-08T03:40:02;100007.41;;;4.06;100.00
30636;BME280;17400;52.392;9.750;2022-12-08T03:42:30;100007.72;;;4.03;100.00
30636;BME280;17400;52.392;9.750;2022-12-08T03:44:58;100004.38;;;4.09;100.00
30636;BME280;17400;52.392;9.750;2022-12-08T03:47:25;99999.19;;;4.08;100.00
30636;BME280;17400;52.392;9.750;2022-12-08T03:49:53;99996.34;;;4.01;100.00
30636;BME280;17400;52.392;9.750;2022-12-08T03:52:22;100000.38;;;3.97;100.00
30636;BME280;17400;52.392;9.750;2022-12-08T03:54:50;100000.38;;;3.97;100.00
30636;BME280;17400;52.392;9.750;2022-12-08T03:57:17;99994.72;;;3.92;100.00
30636;BME280;17400;52.392;9.750;2022-12-08T03:59:45;99987.50;;;3.92;100.00
30636;BME280;17400;52.392;9.750;2022-12-08T04:02:13;99991.69;;;3.95;100.00
30636;BME280;17400;52.392;9.750;2022-12-08T04:04:40;99985.81;;;3.91;100.00
30636;BME280;17400;52.392;9.750;2022-12-08T04:07:08;99991.53;;;3.88;100.00
30636;BME280;17400;52.392;9.750;2022-12-08T04:09:37;99976.78;;;3.92;100.00
30636;BME280;17400;52.392;9.750;2022-12-08T04:12:07;99979.47;;;3.92;100.00
30636;BME280;17400;52.392;9.750;2022-12-08T04:14:34;99979.63;;;3.99;100.00
30636;BME280;17400;52.392;9.750;2022-12-08T04:17:02;99979.78;;;3.97;100.00
30636;BME280;17400;52.392;9.750;2022-12-08T04:19:30;99967.25;;;3.90;100.00
30636;BME280;17400;52.392;9.750;2022-12-08T04:21:57;99969.94;;;3.90;100.00
30636;BME280;17400;52.392;9.750;2022-12-08T04:24:25;99971.28;;;3.86;100.00
30636;BME280;17400;52.392;9.750;2022-12-08T04:26:54;99971.59;;;3.91;100.00
30636;BME280;17400;52.392;9.750;2022-12-08T04:29:22;99964.06;;;3.94;100.00
30636;BME280;17400;52.392;9.750;2022-12-08T04:31:49;99970.09;;;3.88;100.00
30636;BME280;17400;52.392;9.750;2022-12-08T04:34:17;99972.59;;;3.90;100.00
30636;BME280;17400;52.392;9.750;2022-12-08T04:36:45;99968.06;;;3.90;100.00
30636;BME280;17400;52.392;9.750;2022-12-08T04:39:12;99967.25;;;3.90;100.00
30636;BME280;17400;52.392;9.750;2022-12-08T04:41:40;99967.56;;;3.95;100.00
30636;BME280;17400;52.392;9.750;2022-12-08T04:44:09;99963.53;;;3.99;100.00
30636;BME280;17400;52.392;9.750;2022-12-08T04:46:37;99961.91;;;3.90;100.00
30636;BME280;17400;52.392;9.750;2022-12-08T04:49:09;99951.19;;;3.90;100.00
30636;BME280;17400;52.392;9.750;2022-12-08T04:51:37;99967.25;;;3.90;100.00
30636;BME280;17400;52.392;9.750;2022-12-08T04:54:04;99958.56;;;3.88;100.00
30636;BME280;17400;52.392;9.750;2022-12-08T04:56:32;99956.22;;;3.84;100.00
30636;BME280;17400;52.392;9.750;2022-12-08T04:59:00;99956.91;;;3.87;100.00
30636;BME280;17400;52.392;9.750;2022-12-08T05:01:29;99954.41;;;3.85;100.00
30636;BME280;17400;52.392;9.750;2022-12-08T05:03:57;99951.88;;;3.83;100.00
30636;BME280;17400;52.392;9.750;2022-12-08T05:06:24;99941.84;;;3.86;100.00
30636;BME280;17400;52.392;9.750;2022-12-08T05:08:52;99933.25;;;3.90;100.00
30636;BME280;17400;52.392;9.750;2022-12-08T05:11:20;99942.16;;;3.91;100.00
30636;BME280;17400;52.392;9.750;2022-12-08T05:13:47;99940.97;;;3.93;100.00
30636;BME280;17400;52.392;9.750;2022-12-08T05:16:15;99936.78;;;3.91;100.00
30636;BME280;17400;52.392;9.750;2022-12-08T05:18:44;99932.13;;;3.84;100.00
30636;BME280;17400;52.392;9.750;2022-12-08T05:21:12;99945.53;;;3.76;100.00
30636;BME280;17400;52.392;9.750;2022-12-08T05:23:40;99939.19;;;3.77;100.00
30636;BME280;17400;52.392;9.750;2022-12-08T05:26:07;99935.16;;;3.81;100.00
30636;BME280;17400;52.392;9.750;2022-12-08T05:28:35;99938.66;;;3.82;100.00
30636;BME280;17400;52.392;9.750;2022-12-08T05:31:09;99935.47;;;3.87;100.00
30636;BME280;17400;52.392;9.750;2022-12-08T05:33:36;99927.25;;;3.88;100.00
30636;BME280;17400;52.392;9.750;2022-12-08T05:36:07;99922.41;;;3.83;100.00
30636;BME280;17400;52.392;9.750;2022-12-08T05:38:35;99928.78;;;3.82;100.00
30636;BME280;17400;52.392;9.750;2022-12-08T05:41:03;99927.63;;;3.85;100.00
30636;BME280;17400;52.392;9.750;2022-12-08T05:43:32;99915.41;;;3.74;100.00
30636;BME280;17400;52.392;9.750;2022-12-08T05:45:59;99928.47;;;3.77;100.00
30636;BME280;17400;52.392;9.750;2022-12-08T05:48:27;99919.59;;;3.77;100.00
30636;BME280;17400;52.392;9.750;2022-12-08T05:50:55;99915.09;;;3.77;100.00
30636;BME280;17400;52.392;9.750;2022-12-08T05:53:24;99922.81;;;3.72;100.00
30636;BME280;17400;52.392;9.750;2022-12-08T05:55:52;99917.78;;;3.77;100.00
30636;BME280;17400;52.392;9.750;2022-12-08T05:58:21;99922.94;;;3.79;100.00
30636;BME280;17400;52.392;9.750;2022-12-08T06:00:50;99922.13;;;3.78;100.00
30636;BME280;17400;52.392;9.750;2022-12-08T06:03:18;99924.47;;;3.73;100.00
30636;BME280;17400;52.392;9.750;2022-12-08T06:05:46;99922.47;;;3.67;100.00
30636;BME280;17400;52.392;9.750;2022-12-08T06:08:14;99912.09;;;3.72;100.00
30636;BME280;17400;52.392;9.750;2022-12-08T06:10:44;99916.78;;;3.70;100.00
30636;BME280;17400;52.392;9.750;2022-12-08T06:13:12;99916.44;;;3.73;100.00
30636;BME280;17400;52.392;9.750;2022-12-08T06:15:40;99919.28;;;3.80;100.00
30636;BME280;17400;52.392;9.750;2022-12-08T06:18:09;99912.09;;;3.72;100.00
30636;BME280;17400;52.392;9.750;2022-12-08T06:20:39;99919.13;;;3.73;100.00
30636;BME280;17400;52.392;9.750;2022-12-08T06:23:07;99914.59;;;3.74;100.00
30636;BME280;17400;52.392;9.750;2022-12-08T06:25:35;99909.06;;;3.75;100.00
30636;BME280;17400;52.392;9.750;2022-12-08T06:28:05;99906.38;;;3.75;100.00
30636;BME280;17400;52.392;9.750;2022-12-08T06:30:32;99909.41;;;3.72;100.00
30636;BME280;17400;52.392;9.750;2022-12-08T06:33:00;99910.91;;;3.75;100.00
30636;BME280;17400;52.392;9.750;2022-12-08T06:35:28;99917.44;;;3.72;100.00
30636;BME280;17400;52.392;9.750;2022-12-08T06:37:56;99908.06;;;3.76;100.00
30636;BME280;17400;52.392;9.750;2022-12-08T06:40:23;99912.41;;;3.77;100.00
30636;BME280;17400;52.392;9.750;2022-12-08T06:42:51;99920.63;;;3.76;100.00
30636;BME280;17400;52.392;9.750;2022-12-08T06:45:20;99919.59;;;3.77;100.00
30636;BME280;17400;52.392;9.750;2022-12-08T06:47:48;99921.09;;;3.79;100.00
30636;BME280;17400;52.392;9.750;2022-12-08T06:50:15;99923.44;;;3.82;100.00
30636;BME280;17400;52.392;9.750;2022-12-08T06:52:43;99923.09;;;3.86;100.00
30636;BME280;17400;52.392;9.750;2022-12-08T06:55:28;99922.09;;;3.87;100.00
30636;BME280;17400;52.392;9.750;2022-12-08T06:58:16;99922.41;;;3.92;100.00
30636;BME280;17400;52.392;9.750;2022-12-08T07:00:46;99925.91;;;3.92;100.00
30636;BME280;17400;52.392;9.750;2022-12-08T07:03:14;99929.44;;;3.84;100.00
30636;BME280;17400;52.392;9.750;2022-12-08T07:05:41;99930.94;;;3.87;100.00
30636;BME280;17400;52.392;9.750;2022-12-08T07:08:11;99935.13;;;3.90;100.00
30636;BME280;17400;52.392;9.750;2022-12-08T07:10:39;99935.81;;;3.83;100.00
30636;BME280;17400;52.392;9.750;2022-12-08T07:13:07;99939.50;;;3.82;100.00
30636;BME280;17400;52.392;9.750;2022-12-08T07:15:35;99932.97;;;3.77;100.00
30636;BME280;17400;52.392;9.750;2022-12-08T07:18:04;99936.84;;;3.82;100.00
30636;BME280;17400;52.392;9.750;2022-12-08T07:20:31;99939.00;;;3.79;100.00
30636;BME280;17400;52.392;9.750;2022-12-08T07:22:59;99931.84;;;3.71;100.00
30636;BME280;17400;52.392;9.750;2022-12-08T07:25:27;99936.84;;;3.66;100.00
30636;BME280;17400;52.392;9.750;2022-12-08T07:27:54;99940.72;;;3.63;100.00
30636;BME280;17400;52.392;9.750;2022-12-08T07:30:22;99938.75;;;3.57;100.00
30636;BME280;17400;52.392;9.750;2022-12-08T07:32:50;99933.06;;;3.52;100.00
30636;BME280;17400;52.392;9.750;2022-12-08T07:35:19;99944.38;;;3.62;100.00
30636;BME280;17400;52.392;9.750;2022-12-08T07:37:48;99937.53;;;3.68;100.00
30636;BME280;17400;52.392;9.750;2022-12-08T07:40:16;99939.53;;;3.66;100.00
30636;BME280;17400;52.392;9.750;2022-12-08T07:42:44;99942.88;;;3.60;100.00
30636;BME280;17400;52.392;9.750;2022-12-08T07:45:11;99939.06;;;3.54;100.00
30636;BME280;17400;52.392;9.750;2022-12-08T07:47:39;99937.53;;;3.60;100.00
30636;BME280;17400;52.392;9.750;2022-12-08T07:50:07;99944.06;;;3.65;100.00
30636;BME280;17400;52.392;9.750;2022-12-08T07:52:36;99943.88;;;3.75;100.00
30636;BME280;17400;52.392;9.750;2022-12-08T07:55:05;99946.88;;;3.80;100.00
30636;BME280;17400;52.392;9.750;2022-12-08T07:57:32;99944.03;;;3.74;100.00
30636;BME280;17400;52.392;9.750;2022-12-08T08:00:00;99939.50;;;3.74;100.00
30636;BME280;17400;52.392;9.750;2022-12-08T08:02:29;99944.00;;;3.82;100.00
30636;BME280;17400;52.392;9.750;2022-12-08T08:04:56;99939.50;;;3.82;100.00
30636;BME280;17400;52.392;9.750;2022-12-08T08:07:24;99938.97;;;3.87;100.00
30636;BME280;17400;52.392;9.750;2022-12-08T08:09:53;99943.69;;;3.85;100.00
30636;BME280;17400;52.392;9.750;2022-12-08T08:12:21;99954.56;;;3.75;100.00
30636;BME280;17400;52.392;9.750;2022-12-08T08:14:57;99949.72;;;3.79;100.00
30636;BME280;17400;52.392;9.750;2022-12-08T08:17:25;99943.38;;;3.80;100.00
30636;BME280;17400;52.392;9.750;2022-12-08T08:19:53;99946.19;;;3.87;100.00
30636;BME280;17400;52.392;9.750;2022-12-08T08:22:21;99957.72;;;3.87;100.00
30636;BME280;17400;52.392;9.750;2022-12-08T08:24:48;99952.00;;;3.90;100.00
30636;BME280;17400;52.392;9.750;2022-12-08T08:27:18;99946.00;;;3.88;100.00
30636;BME280;17400;52.392;9.750;2022-12-08T08:29:46;99956.19;;;3.93;100.00
30636;BME280;17400;52.392;9.750;2022-12-08T08:32:13;99950.84;;;3.93;100.00
30636;BME280;17400;52.392;9.750;2022-12-08T08:34:42;99958.38;;;3.97;100.00
30636;BME280;17400;52.392;9.750;2022-12-08T08:37:09;99950.50;;;3.96;100.00
30636;BME280;17400;52.392;9.750;2022-12-08T08:39:37;99964.22;;;4.01;100.00
30636;BME280;17400;52.392;9.750;2022-12-08T08:42:05;99961.53;;;4.01;100.00
30636;BME280;17400;52.392;9.750;2022-12-08T08:44:34;99965.88;;;4.02;100.00
30636;BME280;17400;52.392;9.750;2022-12-08T08:47:02;99963.84;;;4.04;100.00
30636;BME280;17400;52.392;9.750;2022-12-08T08:49:30;99957.66;;;4.12;100.00
30636;BME280;17400;52.392;9.750;2022-12-08T08:51:58;99961.31;;;4.11;100.00
30636;BME280;17400;52.392;9.750;2022-12-08T08:54:27;99960.16;;;4.13;100.00
30636;BME280;17400;52.392;9.750;2022-12-08T08:56:56;99964.03;;;4.03;100.00
30636;BME280;17400;52.392;9.750;2022-12-08T08:59:24;99965.56;;;3.89;100.00
30636;BME280;17400;52.392;9.750;2022-12-08T09:01:53;99962.41;;;3.93;100.00
30636;BME280;17400;52.392;9.750;2022-12-08T09:04:22;99966.72;;;4.03;100.00
30636;BME280;17400;52.392;9.750;2022-12-08T09:06:51;99963.38;;;4.00;100.00
30636;BME280;17400;52.392;9.750;2022-12-08T09:09:19;99971.41;;;4.00;100.00
30636;BME280;17400;52.392;9.750;2022-12-08T09:11:46;99964.41;;;3.91;100.00
30636;BME280;17400;52.392;9.750;2022-12-08T09:14:14;99970.28;;;3.87;100.00
30636;BME280;17400;52.392;9.750;2022-12-08T09:16:42;99974.63;;;3.88;100.00
30636;BME280;17400;52.392;9.750;2022-12-08T09:19:11;99976.94;;;3.99;100.00
30636;BME280;17400;52.392;9.750;2022-12-08T09:21:39;99977.94;;;4.06;100.00
30636;BME280;17400;52.392;9.750;2022-12-08T09:24:07;99980.28;;;4.01;100.00
30636;BME280;17400;52.392;9.750;2022-12-08T09:26:41;99978.13;;;3.96;100.00
30636;BME280;17400;52.392;9.750;2022-12-08T09:29:10;99979.25;;;4.10;100.00
30636;BME280;17400;52.392;9.750;2022-12-08T09:31:39;99973.34;;;4.15;100.00
30636;BME280;17400;52.392;9.750;2022-12-08T09:34:10;99978.72;;;4.15;100.00
30636;BME280;17400;52.392;9.750;2022-12-08T09:36:38;99978.53;;;4.16;100.00
30636;BME280;17400;52.392;9.750;2022-12-08T09:39:06;99976.19;;;4.22;100.00
30636;BME280;17400;52.392;9.750;2022-12-08T09:41:36;99972.84;;;4.20;100.00
30636;BME280;17400;52.392;9.750;2022-12-08T09:44:31;99971.38;;;4.09;100.00
30636;BME280;17400;52.392;9.750;2022-12-08T09:47:07;99962.47;;;4.16;100.00
30636;BME280;17400;52.392;9.750;2022-12-08T09:49:44;99954.44;;;4.16;100.00
30636;BME280;17400;52.392;9.750;2022-12-08T09:52:20;99961.97;;;4.21;100.00
30636;BME280;17400;52.392;9.750;2022-12-08T09:54:50;99963.94;;;4.27;100.00
30636;BME280;17400;52.392;9.750;2022-12-08T09:57:19;99954.88;;;4.28;100.00
30636;BME280;17400;52.392;9.750;2022-12-08T09:59:53;99958.22;;;4.30;100.00
30636;BME280;17400;52.392;9.750;2022-12-08T10:02:24;99959.72;;;4.33;100.00
30636;BME280;17400;52.392;9.750;2022-12-08T10:04:56;99952.66;;;4.40;100.00
30636;BME280;17400;52.392;9.750;2022-12-08T10:07:31;99954.09;;;4.51;100.00
30636;BME280;17400;52.392;9.750;2022-12-08T10:10:06;99955.50;;;4.39;100.00
30636;BME280;17400;52.392;9.750;2022-12-08T10:12:44;99953.38;;;4.34;100.00
30636;BME280;17400;52.392;9.750;2022-12-08T10:15:29;99959.38;;;4.36;100.00
30636;BME280;17400;52.392;9.750;2022-12-08T10:18:01;99953.38;;;4.34;100.00
30636;BME280;17400;52.392;9.750;2022-12-08T10:20:35;99955.38;;;4.32;100.00
30636;BME280;17400;52.392;9.750;2022-12-08T10:23:08;99949.97;;;4.40;100.00
30636;BME280;17400;52.392;9.750;2022-12-08T10:25:43;99956.00;;;4.42;100.00
30636;BME280;17400;52.392;9.750;2022-12-08T10:28:11;99957.19;;;4.40;100.00
30636;BME280;17400;52.392;9.750;2022-12-08T10:30:40;99951.69;;;4.33;100.00
30636;BME280;17400;52.392;9.750;2022-12-08T10:33:13;99955.75;;;4.52;100.00
30636;BME280;17400;52.392;9.750;2022-12-08T10:35:45;99956.38;;;4.62;100.00
30636;BME280;17400;52.392;9.750;2022-12-08T10:38:20;99944.41;;;4.73;100.00
30636;BME280;17400;52.392;9.750;2022-12-08T10:40:50;99947.41;;;4.78;100.00
30636;BME280;17400;52.392;9.750;2022-12-08T10:43:23;99950.06;;;4.78;100.00
30636;BME280;17400;52.392;9.750;2022-12-08T10:45:51;99950.88;;;4.87;100.00
30636;BME280;17400;52.392;9.750;2022-12-08T10:48:24;99947.50;;;4.85;100.00
30636;BME280;17400;52.392;9.750;2022-12-08T10:50:55;99947.69;;;4.83;100.00
30636;BME280;17400;52.392;9.750;2022-12-08T10:53:24;99941.22;;;4.78;100.00
30636;BME280;17400;52.392;9.750;2022-12-08T10:56:06;99936.66;;;4.78;100.00
30636;BME280;17400;52.392;9.750;2022-12-08T10:58:35;99937.03;;;4.75;100.00
30636;BME280;17400;52.392;9.750;2022-12-08T11:01:10;99937.22;;;4.74;100.00
30636;BME280;17400;52.392;9.750;2022-12-08T11:03:44;99933.69;;;4.73;100.00
30636;BME280;17400;52.392;9.750;2022-12-08T11:06:17;99928.63;;;4.78;100.00
30636;BME280;17400;52.392;9.750;2022-12-08T11:08:50;99935.41;;;4.66;100.00
30636;BME280;17400;52.392;9.750;2022-12-08T11:11:20;99927.56;;;4.64;100.00
30636;BME280;17400;52.392;9.750;2022-12-08T11:13:55;99929.06;;;4.67;100.00
30636;BME280;17400;52.392;9.750;2022-12-08T11:16:23;99924.34;;;4.69;100.00
30636;BME280;17400;52.392;9.750;2022-12-08T11:18:54;99931.56;;;4.69;100.00
30636;BME280;17400;52.392;9.750;2022-12-08T11:21:32;99930.38;;;4.71;100.00
30636;BME280;17400;52.392;9.750;2022-12-08T11:24:17;99935.19;;;4.76;100.00
30636;BME280;17400;52.392;9.750;2022-12-08T11:26:51;99936.25;;;4.66;100.00
30636;BME280;17400;52.392;9.750;2022-12-08T11:29:19;99940.78;;;4.66;100.00
30636;BME280;17400;52.392;9.750;2022-12-08T11:31:51;99940.00;;;4.57;100.00
30636;BME280;17400;52.392;9.750;2022-12-08T11:34:25;99936.19;;;4.52;100.00
30636;BME280;17400;52.392;9.750;2022-12-08T11:36:55;99936.50;;;4.48;100.00
30636;BME280;17400;52.392;9.750;2022-12-08T11:39:25;99934.88;;;4.47;100.00
30636;BME280;17400;52.392;9.750;2022-12-08T11:41:55;99932.13;;;4.56;100.00
30636;BME280;17400;52.392;9.750;2022-12-08T11:44:28;99932.44;;;4.61;100.00
30636;BME280;17400;52.392;9.750;2022-12-08T11:47:03;99938.00;;;4.51;100.00
30636;BME280;17400;52.392;9.750;2022-12-08T11:49:33;99940.00;;;4.57;100.00
30636;BME280;17400;52.392;9.750;2022-12-08T11:52:06;99931.13;;;4.57;100.00
30636;BME280;17400;52.392;9.750;2022-12-08T11:54:41;99936.50;;;4.57;100.00
30636;BME280;17400;52.392;9.750;2022-12-08T11:57:12;99929.09;;;4.59;100.00
30636;BME280;17400;52.392;9.750;2022-12-08T11:59:43;99937.97;;;4.59;100.00
30636;BME280;17400;52.392;9.750;2022-12-08T12:02:14;99937.09;;;4.67;100.00
30636;BME280;17400;52.392;9.750;2022-12-08T12:04:47;99929.38;;;4.64;100.00
30636;BME280;17400;52.392;9.750;2022-12-08T12:07:32;99931.56;;;4.69;100.00
30636;BME280;17400;52.392;9.750;2022-12-08T12:10:18;99937.03;;;4.75;100.00
30636;BME280;17400;52.392;9.750;2022-12-08T12:13:00;99942.03;;;4.78;100.00
30636;BME280;17400;52.392;9.750;2022-12-08T12:15:53;99934.44;;;4.59;100.00
30636;BME280;17400;52.392;9.750;2022-12-08T12:18:34;99931.13;;;4.57;100.00
30636;BME280;17400;52.392;9.750;2022-12-08T12:21:08;99934.63;;;4.57;100.00
30636;BME280;17400;52.392;9.750;2022-12-08T12:23:41;99927.78;;;4.55;100.00
30636;BME280;17400;52.392;9.750;2022-12-08T12:26:17;99922.78;;;4.52;100.00
30636;BME280;17400;52.392;9.750;2022-12-08T12:28:49;99938.00;;;4.51;100.00
30636;BME280;17400;52.392;9.750;2022-12-08T12:31:22;99934.00;;;4.55;100.00
30636;BME280;17400;52.392;9.750;2022-12-08T12:33:54;99928.44;;;4.57;100.00
30636;BME280;17400;52.392;9.750;2022-12-08T12:36:23;99934.56;;;4.65;100.00
30636;BME280;17400;52.392;9.750;2022-12-08T12:38:54;99935.47;;;4.58;100.00
30636;BME280;17400;52.392;9.750;2022-12-08T12:41:34;99938.16;;;4.58;100.00
30636;BME280;17400;52.392;9.750;2022-12-08T12:44:21;99936.88;;;4.45;100.00
30636;BME280;17400;52.392;9.750;2022-12-08T12:46:57;99936.94;;;4.37;100.00
30636;BME280;17400;52.392;9.750;2022-12-08T12:49:48;99935.94;;;4.30;100.00
30636;BME280;17400;52.392;9.750;2022-12-08T12:52:44;99931.63;;;4.29;100.00
30636;BME280;17400;52.392;9.750;2022-12-08T12:55:29;99927.41;;;4.34;100.00
30636;BME280;17400;52.392;9.750;2022-12-08T12:58:37;99931.50;;;4.45;100.00
30636;BME280;17400;52.392;9.750;2022-12-08T13:01:34;99935.19;;;4.44;100.00
30636;BME280;17400;52.392;9.750;2022-12-08T13:04:05;99936.19;;;4.52;100.00
30636;BME280;17400;52.392;9.750;2022-12-08T13:06:37;99934.13;;;4.62;100.00
30636;BME280;17400;52.392;9.750;2022-12-08T13:09:06;99929.22;;;4.65;100.00
30636;BME280;17400;52.392;9.750;2022-12-08T13:11:49;99933.44;;;4.60;100.00
30636;BME280;17400;52.392;9.750;2022-12-08T13:14:30;99939.47;;;4.62;100.00
30636;BME280;17400;52.392;9.750;2022-12-08T13:17:00;99937.25;;;4.65;100.00
30636;BME280;17400;52.392;9.750;2022-12-08T13:19:30;99936.72;;;4.70;100.00
30636;BME280;17400;52.392;9.750;2022-12-08T13:21:59;99928.38;;;4.65;100.00